createdAt,value
2023-03-24T00:02:25.201Z,13.23
2023-03-24T00:05:16.262Z,13.31
2023-03-24T00:08:06.395Z,13.26
2023-03-24T00:10:54.776Z,13.29
2023-03-24T00:13:43.114Z,13.31
2023-03-24T00:16:34.756Z,13.38
2023-03-24T00:19:23.227Z,13.35
2023-03-24T00:22:14.496Z,13.27
2023-03-24T00:25:04.409Z,13.31
2023-03-24T00:27:53.344Z,13.34
2023-03-24T00:30:42.950Z,13.31
2023-03-24T00:33:32.889Z,13.30
2023-03-24T00:36:23.201Z,13.24
2023-03-24T00:39:12.030Z,13.27
2023-03-24T00:42:03.448Z,13.35
2023-03-24T00:44:53.899Z,13.41
2023-03-24T00:47:44.830Z,13.44
2023-03-24T00:50:33.544Z,13.33
2023-03-24T00:53:23.271Z,13.13
2023-03-24T00:56:15.643Z,12.99
2023-03-24T00:59:05.541Z,12.91
2023-03-24T01:01:53.936Z,12.85
2023-03-24T01:04:47.307Z,12.81
2023-03-24T01:07:36.255Z,12.83
2023-03-24T01:10:26.497Z,12.78
2023-03-24T01:13:15.237Z,12.49
2023-03-24T01:16:06.694Z,12.19
2023-03-24T01:18:55.273Z,12.10
2023-03-24T01:21:43.716Z,12.12
2023-03-24T01:24:32.111Z,12.15
2023-03-24T01:27:20.495Z,12.16
2023-03-24T01:30:10.368Z,12.11
2023-03-24T01:33:00.589Z,12.18
2023-03-24T01:35:49.250Z,12.33
2023-03-24T01:38:38.004Z,12.41
2023-03-24T01:41:27.986Z,12.34
2023-03-24T01:44:31.910Z,12.14
2023-03-24T01:47:20.477Z,12.24
2023-03-24T01:50:10.230Z,12.35
2023-03-24T01:52:58.726Z,12.40
2023-03-24T01:55:48.964Z,12.25
2023-03-24T01:58:44.845Z,12.08
2023-03-24T02:01:39.866Z,12.20
2023-03-24T02:05:01.128Z,12.33
2023-03-24T02:08:03.605Z,12.40
2023-03-24T02:10:53.583Z,12.35
2023-03-24T02:13:42.096Z,12.40
2023-03-24T02:16:53.611Z,12.27
2023-03-24T02:19:56.182Z,12.22
2023-03-24T02:23:22.782Z,11.94
2023-03-24T02:26:36.332Z,11.69
2023-03-24T02:30:04.946Z,11.56
2023-03-24T02:33:29.429Z,11.59
2023-03-24T02:36:42.402Z,11.62
2023-03-24T02:39:51.476Z,11.38
2023-03-24T02:42:46.831Z,11.46
2023-03-24T02:45:38.080Z,11.60
2023-03-24T02:48:33.164Z,11.76
2023-03-24T02:51:26.014Z,11.88
2023-03-24T02:54:18.592Z,11.97
2023-03-24T02:57:11.509Z,12.00
2023-03-24T03:00:32.457Z,11.92
2023-03-24T03:03:34.410Z,12.04
2023-03-24T03:06:26.794Z,12.13
2023-03-24T03:09:17.777Z,12.20
2023-03-24T03:12:08.179Z,12.00
2023-03-24T03:15:01.135Z,12.04
2023-03-24T03:17:53.274Z,12.02
2023-03-24T03:20:51.021Z,11.87
2023-03-24T03:23:42.572Z,11.90
2023-03-24T03:26:32.927Z,11.98
2023-03-24T03:29:24.312Z,12.02
2023-03-24T03:32:16.915Z,12.12
2023-03-24T03:35:08.844Z,12.15
2023-03-24T03:38:01.692Z,12.20
2023-03-24T03:40:52.068Z,12.17
2023-03-24T03:43:43.801Z,12.12
2023-03-24T03:46:35.933Z,12.18
2023-03-24T03:49:27.073Z,12.21
2023-03-24T03:52:16.066Z,12.02
2023-03-24T03:55:05.965Z,12.09
2023-03-24T03:57:54.742Z,12.18
2023-03-24T04:00:55.897Z,12.08
2023-03-24T04:04:09.227Z,12.04
2023-03-24T04:07:25.199Z,12.10
2023-03-24T04:10:32.577Z,12.12
2023-03-24T04:13:27.448Z,12.18
2023-03-24T04:16:55.012Z,12.21
2023-03-24T04:19:58.898Z,12.24
2023-03-24T04:22:58.517Z,12.12
2023-03-24T04:25:51.001Z,12.14
2023-03-24T04:28:43.321Z,12.05
2023-03-24T04:31:35.115Z,12.08
2023-03-24T04:34:29.227Z,12.03
2023-03-24T04:37:25.126Z,12.04
2023-03-24T04:40:20.253Z,12.02
2023-03-24T04:43:10.946Z,12.04
2023-03-24T04:45:59.428Z,12.01
2023-03-24T04:49:06.901Z,12.03
2023-03-24T04:51:57.696Z,12.04
2023-03-24T04:54:49.896Z,12.04
2023-03-24T04:57:38.268Z,11.94
2023-03-24T05:00:27.667Z,11.59
2023-03-24T05:03:17.467Z,11.51
2023-03-24T05:06:06.789Z,11.35
2023-03-24T05:08:57.733Z,11.22
2023-03-24T05:11:50.531Z,10.97
2023-03-24T05:14:39.376Z,10.98
2023-03-24T05:17:28.943Z,10.75
2023-03-24T05:20:17.644Z,10.81
2023-03-24T05:23:10.415Z,10.91
2023-03-24T05:26:00.027Z,11.10
2023-03-24T05:28:52.794Z,10.77
2023-03-24T05:31:41.330Z,10.69
2023-03-24T05:34:31.703Z,10.76
2023-03-24T05:37:31.188Z,10.75
2023-03-24T05:40:19.893Z,10.68
2023-03-24T05:43:13.162Z,10.84
2023-03-24T05:46:08.420Z,10.82
2023-03-24T05:48:56.832Z,10.82
2023-03-24T05:51:51.396Z,10.81
2023-03-24T05:54:39.887Z,10.86
2023-03-24T05:57:37.109Z,10.76
2023-03-24T06:00:50.459Z,10.73
2023-03-24T06:03:52.920Z,10.84
2023-03-24T06:06:45.751Z,10.94
2023-03-24T06:09:40.830Z,10.98
2023-03-24T06:12:30.268Z,11.10
2023-03-24T06:15:22.780Z,11.17
2023-03-24T06:18:14.130Z,11.28
2023-03-24T06:21:04.405Z,11.33
2023-03-24T06:23:56.438Z,11.48
2023-03-24T06:26:50.124Z,11.57
2023-03-24T06:29:39.358Z,11.62
2023-03-24T06:32:28.886Z,11.61
2023-03-24T06:35:17.836Z,11.59
2023-03-24T06:38:16.219Z,11.65
2023-03-24T06:41:07.505Z,11.59
2023-03-24T06:43:57.462Z,11.67
2023-03-24T06:46:47.296Z,11.66
2023-03-24T06:49:37.256Z,11.72
2023-03-24T06:52:27.880Z,11.61
2023-03-24T06:55:18.755Z,11.60
2023-03-24T06:58:07.168Z,11.69
2023-03-24T07:01:16.042Z,11.84
2023-03-24T07:04:48.229Z,11.92
2023-03-24T07:10:53.785Z,12.06
2023-03-24T07:13:42.462Z,12.10
2023-03-24T07:16:31.227Z,12.15
2023-03-24T07:19:46.122Z,12.10
2023-03-24T07:22:56.861Z,12.08
2023-03-24T07:25:47.904Z,12.02
2023-03-24T07:28:49.398Z,12.03
2023-03-24T07:31:48.883Z,12.05
2023-03-24T07:34:39.250Z,12.13
2023-03-24T07:37:27.590Z,12.18
2023-03-24T07:40:17.028Z,12.24
2023-03-24T07:43:07.001Z,12.28
2023-03-24T07:46:05.600Z,12.35
2023-03-24T07:48:54.978Z,12.34
2023-03-24T07:51:44.505Z,12.36
2023-03-24T07:54:55.516Z,12.34
2023-03-24T07:58:07.570Z,12.22
2023-03-24T08:00:56.700Z,12.25
2023-03-24T08:03:56.205Z,12.04
2023-03-24T08:07:12.315Z,11.82
2023-03-24T08:10:00.821Z,11.62
2023-03-24T08:12:49.308Z,11.64
2023-03-24T08:15:37.991Z,11.65
2023-03-24T08:18:26.476Z,11.58
2023-03-24T08:21:16.610Z,11.62
2023-03-24T08:24:06.756Z,11.72
2023-03-24T08:26:58.652Z,11.82
2023-03-24T08:29:47.061Z,11.95
2023-03-24T08:32:37.279Z,11.96
2023-03-24T08:35:28.872Z,12.09
2023-03-24T08:38:19.197Z,12.17
2023-03-24T08:41:08.513Z,12.26
2023-03-24T08:43:56.987Z,12.24
2023-03-24T08:46:45.443Z,12.21
2023-03-24T08:49:33.885Z,11.89
2023-03-24T08:52:22.220Z,11.83
2023-03-24T08:55:12.212Z,11.85
2023-03-24T08:58:00.710Z,11.88
2023-03-24T09:00:49.987Z,11.95
2023-03-24T09:03:39.604Z,12.01
2023-03-24T09:06:28.283Z,11.94
2023-03-24T09:09:16.633Z,11.98
2023-03-24T09:12:06.689Z,11.92
2023-03-24T09:14:55.309Z,12.00
2023-03-24T09:17:43.956Z,11.94
2023-03-24T09:20:32.472Z,11.98
2023-03-24T09:23:21.608Z,12.00
2023-03-24T09:26:09.976Z,12.06
2023-03-24T09:28:59.661Z,12.17
2023-03-24T09:31:48.045Z,12.25
2023-03-24T09:34:38.329Z,12.35
2023-03-24T09:37:26.821Z,12.41
2023-03-24T09:40:19.850Z,12.37
2023-03-24T09:43:11.930Z,12.41
2023-03-24T09:46:03.220Z,12.44
2023-03-24T09:48:54.006Z,12.31
2023-03-24T09:51:44.606Z,12.33
2023-03-24T09:54:39.878Z,12.30
2023-03-24T09:57:30.431Z,12.18
2023-03-24T10:00:20.991Z,12.24
2023-03-24T10:03:16.849Z,12.20
2023-03-24T10:06:09.663Z,12.06
2023-03-24T10:09:07.833Z,11.96
2023-03-24T10:12:06.541Z,11.99
2023-03-24T10:15:08.650Z,11.95
2023-03-24T10:18:00.356Z,11.91
2023-03-24T10:20:53.792Z,11.91
2023-03-24T10:23:47.240Z,11.97
2023-03-24T10:26:41.839Z,11.97
2023-03-24T10:29:31.777Z,12.03
2023-03-24T10:32:22.741Z,12.03
2023-03-24T10:35:16.875Z,12.09
2023-03-24T10:38:16.856Z,12.09
2023-03-24T10:41:05.875Z,12.04
2023-03-24T10:43:55.878Z,12.04
2023-03-24T10:46:48.239Z,12.10
2023-03-24T10:49:36.586Z,12.07
2023-03-24T10:52:25.548Z,12.03
2023-03-24T10:55:19.320Z,12.05
2023-03-24T10:58:17.091Z,12.04
2023-03-24T11:01:10.541Z,12.08
2023-03-24T11:04:00.691Z,12.09
2023-03-24T11:07:04.073Z,12.16
2023-03-24T11:10:00.374Z,12.21
2023-03-24T11:13:05.051Z,12.15
2023-03-24T11:15:56.174Z,12.12
2023-03-24T11:18:57.852Z,12.12
2023-03-24T11:21:46.474Z,12.13
2023-03-24T11:24:37.938Z,12.20
2023-03-24T11:27:26.396Z,12.33
2023-03-24T11:30:16.536Z,12.40
2023-03-24T11:33:06.435Z,12.50
2023-03-24T11:36:05.082Z,12.58
2023-03-24T11:39:00.441Z,12.66
2023-03-24T11:42:00.541Z,12.67
2023-03-24T11:44:51.352Z,12.64
2023-03-24T11:47:41.304Z,12.71
2023-03-24T11:50:31.378Z,12.77
2023-03-24T11:53:23.215Z,12.87
2023-03-24T11:56:14.767Z,12.95
2023-03-24T11:59:06.814Z,13.06
2023-03-24T12:02:00.985Z,13.15
2023-03-24T12:05:10.841Z,13.31
2023-03-24T12:08:14.705Z,13.40
2023-03-24T12:11:09.134Z,13.52
2023-03-24T12:13:58.151Z,13.65
2023-03-24T12:16:53.868Z,13.77
2023-03-24T12:19:58.791Z,13.99
2023-03-24T12:22:59.245Z,14.06
2023-03-24T12:25:58.980Z,14.16
2023-03-24T12:29:16.385Z,14.32
2023-03-24T12:32:13.539Z,14.44
2023-03-24T12:35:25.621Z,14.63
2023-03-24T12:38:32.575Z,14.78
2023-03-24T12:41:35.067Z,14.92
2023-03-24T12:45:07.823Z,15.13
2023-03-24T12:48:06.872Z,15.27
2023-03-24T12:51:04.444Z,15.23
2023-03-24T12:54:07.632Z,15.23
2023-03-24T12:56:58.348Z,15.13
2023-03-24T12:59:49.412Z,15.14
2023-03-24T13:02:39.858Z,15.16
2023-03-24T13:05:31.292Z,15.16
2023-03-24T13:08:29.642Z,15.09
2023-03-24T13:11:32.702Z,15.05
2023-03-24T13:14:27.005Z,15.01
2023-03-24T13:17:19.650Z,15.03
2023-03-24T13:20:14.471Z,15.02
2023-03-24T13:23:07.885Z,15.07
2023-03-24T13:26:05.909Z,15.12
2023-03-24T13:29:06.171Z,15.24
2023-03-24T13:31:57.783Z,15.42
2023-03-24T13:34:49.669Z,15.51
2023-03-24T13:37:41.270Z,15.58
2023-03-24T13:40:32.551Z,15.66
2023-03-24T13:43:22.631Z,15.59
2023-03-24T13:46:14.466Z,15.44
2023-03-24T13:49:06.549Z,15.32
2023-03-24T13:51:54.956Z,15.19
2023-03-24T13:54:44.150Z,15.10
2023-03-24T13:57:32.627Z,15.08
2023-03-24T14:00:23.264Z,15.03
2023-03-24T14:03:20.887Z,14.95
2023-03-24T14:06:09.786Z,15.06
2023-03-24T14:09:05.577Z,15.11
2023-03-24T14:12:18.056Z,15.24
2023-03-24T14:15:18.930Z,15.26
2023-03-24T14:18:42.594Z,15.11
2023-03-24T14:21:31.572Z,15.05
2023-03-24T14:24:24.909Z,14.95
2023-03-24T14:27:24.637Z,14.83
2023-03-24T14:30:19.947Z,14.77
2023-03-24T14:33:23.941Z,14.75
2023-03-24T14:36:20.774Z,14.68
2023-03-24T14:39:21.116Z,14.66
2023-03-24T14:42:47.200Z,14.59
2023-03-24T14:45:54.334Z,14.66
2023-03-24T14:48:57.427Z,14.56
2023-03-24T14:51:55.214Z,14.52
2023-03-24T14:54:46.333Z,14.56
2023-03-24T14:57:39.061Z,14.50
2023-03-24T15:00:32.828Z,14.54
2023-03-24T15:03:27.097Z,14.50
2023-03-24T15:06:17.106Z,14.51
2023-03-24T15:09:10.885Z,14.49
2023-03-24T15:12:00.729Z,14.46
2023-03-24T15:14:49.144Z,14.49
2023-03-24T15:17:38.624Z,14.52
2023-03-24T15:20:28.790Z,14.43
2023-03-24T15:23:18.830Z,14.44
2023-03-24T15:26:13.875Z,14.43
2023-03-24T15:29:03.871Z,14.48
2023-03-24T15:31:52.378Z,14.48
2023-03-24T15:34:42.349Z,14.44
2023-03-24T15:37:38.049Z,14.46
2023-03-24T15:40:36.539Z,14.41
2023-03-24T15:43:26.523Z,14.37
2023-03-24T15:46:23.485Z,14.28
2023-03-24T15:49:19.375Z,14.17
2023-03-24T15:52:26.581Z,14.03
2023-03-24T15:55:24.454Z,13.95
2023-03-24T15:58:23.836Z,13.89
2023-03-24T16:01:17.276Z,13.81
2023-03-24T16:04:07.505Z,13.81
2023-03-24T16:06:57.656Z,13.72
2023-03-24T16:09:47.412Z,13.67
2023-03-24T16:12:37.493Z,13.63
2023-03-24T16:15:25.864Z,13.51
2023-03-24T16:18:18.385Z,13.48
2023-03-24T16:21:12.600Z,13.46
2023-03-24T16:24:01.079Z,13.44
2023-03-24T16:26:50.118Z,13.33
2023-03-24T16:29:38.493Z,13.26
2023-03-24T16:32:26.908Z,13.20
2023-03-24T16:35:16.912Z,13.08
2023-03-24T16:38:06.017Z,13.02
2023-03-24T16:40:55.898Z,12.90
2023-03-24T16:43:45.097Z,12.82
2023-03-24T16:46:35.480Z,12.69
2023-03-24T16:49:24.543Z,12.64
2023-03-24T16:52:15.842Z,12.53
2023-03-24T16:55:06.408Z,12.38
2023-03-24T16:57:54.802Z,12.36
2023-03-24T17:00:43.854Z,12.32
2023-03-24T17:03:32.532Z,12.33
2023-03-24T17:06:21.164Z,12.28
2023-03-24T17:09:12.644Z,12.25
2023-03-24T17:12:02.266Z,12.19
2023-03-24T17:14:50.596Z,12.05
2023-03-24T17:17:39.370Z,11.95
2023-03-24T17:20:29.629Z,11.94
2023-03-24T17:23:18.945Z,11.97
2023-03-24T17:26:08.739Z,11.99
2023-03-24T17:28:57.227Z,11.92
2023-03-24T17:31:45.707Z,11.88
2023-03-24T17:34:34.140Z,11.75
2023-03-24T17:37:23.856Z,11.62
2023-03-24T17:40:14.926Z,11.65
2023-03-24T17:43:05.537Z,11.69
2023-03-24T17:45:57.965Z,11.67
2023-03-24T17:48:47.267Z,11.61
2023-03-24T17:51:37.686Z,11.57
2023-03-24T17:54:28.150Z,11.55
2023-03-24T17:57:16.652Z,11.50
2023-03-24T18:00:11.093Z,11.50
2023-03-24T18:02:59.524Z,11.51
2023-03-24T18:05:48.025Z,11.50
2023-03-24T18:08:36.886Z,11.50
2023-03-24T18:11:25.412Z,11.51
2023-03-24T18:14:13.837Z,11.45
2023-03-24T18:17:03.969Z,11.40
2023-03-24T18:19:52.984Z,11.38
2023-03-24T18:22:41.673Z,11.40
2023-03-24T18:25:30.147Z,11.39
2023-03-24T18:28:18.508Z,11.35
2023-03-24T18:31:10.164Z,11.39
2023-03-24T18:34:01.305Z,11.41
2023-03-24T18:36:50.192Z,11.31
2023-03-24T18:39:39.367Z,11.32
2023-03-24T18:42:27.775Z,11.29
2023-03-24T18:45:18.574Z,11.22
2023-03-24T18:48:07.824Z,11.23
2023-03-24T18:50:58.724Z,11.19
2023-03-24T18:53:47.681Z,11.18
2023-03-24T18:56:36.464Z,11.16
2023-03-24T18:59:25.415Z,11.18
2023-03-24T19:02:15.256Z,11.14
2023-03-24T19:05:04.103Z,11.10
2023-03-24T19:07:53.856Z,11.11
2023-03-24T19:10:43.171Z,11.03
2023-03-24T19:13:31.657Z,11.02
2023-03-24T19:16:21.424Z,11.03
2023-03-24T19:19:10.172Z,11.04
2023-03-24T19:21:59.319Z,11.01
2023-03-24T19:24:50.049Z,10.98
2023-03-24T19:27:38.396Z,11.02
2023-03-24T19:30:27.535Z,10.99
2023-03-24T19:33:16.062Z,11.03
2023-03-24T19:36:05.063Z,10.98
2023-03-24T19:38:53.753Z,10.93
2023-03-24T19:41:43.554Z,10.88
2023-03-24T19:44:32.112Z,10.86
2023-03-24T19:47:20.507Z,10.80
2023-03-24T19:50:10.092Z,10.76
2023-03-24T19:52:58.473Z,10.67
2023-03-24T19:55:46.832Z,10.62
2023-03-24T19:58:36.650Z,10.62
2023-03-24T20:01:25.048Z,10.61
2023-03-24T20:04:13.472Z,10.63
2023-03-24T20:07:03.270Z,10.58
2023-03-24T20:09:51.727Z,10.60
2023-03-24T20:12:40.293Z,10.56
2023-03-24T20:15:30.051Z,10.60
2023-03-24T20:18:18.428Z,10.59
2023-03-24T20:21:08.487Z,10.57
2023-03-24T20:23:56.860Z,10.52
2023-03-24T20:26:46.546Z,10.50
2023-03-24T20:29:36.857Z,10.45
2023-03-24T20:32:26.687Z,10.46
2023-03-24T20:35:15.338Z,10.41
2023-03-24T20:38:03.724Z,10.42
2023-03-24T20:40:59.223Z,10.41
2023-03-24T20:43:47.848Z,10.40
2023-03-24T20:46:36.342Z,10.40
2023-03-24T20:49:26.517Z,10.34
2023-03-24T20:52:15.356Z,10.32
2023-03-24T20:55:06.229Z,10.35
2023-03-24T20:57:55.971Z,10.35
2023-03-24T21:00:47.583Z,10.30
2023-03-24T21:03:36.628Z,10.28
2023-03-24T21:06:26.581Z,10.23
2023-03-24T21:09:15.033Z,10.22
2023-03-24T21:12:03.902Z,10.21
2023-03-24T21:14:52.319Z,10.23
2023-03-24T21:17:40.915Z,10.19
2023-03-24T21:20:30.679Z,10.18
2023-03-24T21:23:21.583Z,10.13
2023-03-24T21:26:13.487Z,10.07
2023-03-24T21:29:01.891Z,10.14
2023-03-24T21:31:51.487Z,10.03
2023-03-24T21:34:39.880Z,10.09
2023-03-24T21:37:30.180Z,10.06
2023-03-24T21:40:22.016Z,10.05
2023-03-24T21:43:10.787Z,9.94
2023-03-24T21:46:00.047Z,9.95
2023-03-24T21:48:51.456Z,9.87
2023-03-24T21:51:42.944Z,9.88
2023-03-24T21:54:33.384Z,9.83
2023-03-24T21:57:23.202Z,9.79
2023-03-24T22:00:14.806Z,9.77
2023-03-24T22:03:03.762Z,9.66
2023-03-24T22:05:54.568Z,9.66
2023-03-24T22:08:44.136Z,9.65
2023-03-24T22:11:32.905Z,9.65
2023-03-24T22:14:22.635Z,9.63
2023-03-24T22:17:11.029Z,9.68
2023-03-24T22:19:59.388Z,9.61
2023-03-24T22:22:47.921Z,9.49
2023-03-24T22:25:36.948Z,9.53
2023-03-24T22:28:25.416Z,9.52
2023-03-24T22:31:16.893Z,9.45
2023-03-24T22:34:05.380Z,9.42
2023-03-24T22:36:53.787Z,9.41
2023-03-24T22:39:42.633Z,9.32
2023-03-24T22:42:31.093Z,9.32
2023-03-24T22:45:19.457Z,9.31
2023-03-24T22:48:09.327Z,9.31
2023-03-24T22:50:57.833Z,9.35
2023-03-24T22:53:46.691Z,9.40
2023-03-24T22:56:35.107Z,9.43
2023-03-24T22:59:24.649Z,9.40
2023-03-24T23:02:13.101Z,9.43
2023-03-24T23:05:03.007Z,9.43
2023-03-24T23:07:51.437Z,9.42
2023-03-24T23:10:40.721Z,9.44
2023-03-24T23:13:30.887Z,9.32
2023-03-24T23:16:19.946Z,9.32
2023-03-24T23:19:09.503Z,9.29
2023-03-24T23:21:59.390Z,9.33
2023-03-24T23:24:48.034Z,9.31
2023-03-24T23:27:37.096Z,9.29
2023-03-24T23:30:25.686Z,9.27
2023-03-24T23:33:15.073Z,9.32
2023-03-24T23:36:04.419Z,9.30
2023-03-24T23:38:55.797Z,9.27
2023-03-24T23:41:44.306Z,9.25
2023-03-24T23:44:32.720Z,9.23
2023-03-24T23:47:21.066Z,9.28
2023-03-24T23:50:10.730Z,9.32
2023-03-24T23:52:59.504Z,9.26
2023-03-24T23:55:57.113Z,9.31
2023-03-24T23:58:45.841Z,9.26
